createdAt,value
2022-10-24T00:02:04.291Z,100215.16
2022-10-24T00:04:37.383Z,100201.53
2022-10-24T00:07:13.706Z,100189.81
2022-10-24T00:09:43.203Z,100193.88
2022-10-24T00:12:11.140Z,100191.97
2022-10-24T00:14:39.035Z,100198.25
2022-10-24T00:17:07.338Z,100203.72
2022-10-24T00:19:35.575Z,100211.88
2022-10-24T00:22:03.433Z,100211.06
2022-10-24T00:24:31.341Z,100204.78
2022-10-24T00:27:00.585Z,100204.78
2022-10-24T00:29:28.889Z,100196.59
2022-10-24T00:31:56.762Z,100197.66
2022-10-24T00:34:24.625Z,100195.53
2022-10-24T00:36:52.505Z,100196.59
2022-10-24T00:39:20.383Z,100195.78
2022-10-24T00:41:48.221Z,100191.16
2022-10-24T00:44:22.193Z,100199.31
2022-10-24T00:46:53.015Z,100166.91
2022-10-24T00:49:24.030Z,100187.59
2022-10-24T00:51:53.259Z,100151.31
2022-10-24T00:54:21.147Z,100187.59
2022-10-24T00:56:55.093Z,100185.69
2022-10-24T00:59:24.311Z,100186.75
2022-10-24T01:01:52.196Z,100182.16
2022-10-24T01:04:20.158Z,100184.88
2022-10-24T01:06:49.441Z,100175.88
2022-10-24T01:09:38.812Z,100152.09
2022-10-24T01:12:15.150Z,100175.88
2022-10-24T01:14:48.473Z,100164.97
2022-10-24T01:17:19.337Z,100152.94
2022-10-24T01:20:18.500Z,100164.13
2022-10-24T01:22:53.401Z,100164.13
2022-10-24T01:25:24.178Z,100156.22
2022-10-24T01:27:59.114Z,100155.13
2022-10-24T01:30:28.414Z,100152.66
2022-10-24T01:32:58.546Z,100111.91
2022-10-24T01:35:36.541Z,100137.31
2022-10-24T01:38:08.614Z,100143.91
2022-10-24T01:40:37.735Z,100147.22
2022-10-24T01:43:09.613Z,100139.84
2022-10-24T01:45:40.492Z,100134.69
2022-10-24T01:48:10.872Z,100113.16
2022-10-24T01:50:39.041Z,100133.59
2022-10-24T01:53:07.092Z,100130.84
2022-10-24T01:55:34.953Z,100112.63
2022-10-24T01:58:03.085Z,100116.44
2022-10-24T02:00:31.052Z,100118.06
2022-10-24T02:03:01.582Z,100099.41
2022-10-24T02:05:31.189Z,100112.63
2022-10-24T02:08:02.058Z,100103.53
2022-10-24T02:10:32.213Z,100116.44
2022-10-24T02:13:01.897Z,100110.16
2022-10-24T02:15:30.885Z,100107.44
2022-10-24T02:18:00.626Z,100111.00
2022-10-24T02:20:30.318Z,100111.00
2022-10-24T02:23:00.166Z,100111.22
2022-10-24T02:25:29.640Z,100114.50
2022-10-24T02:27:59.923Z,100111.78
2022-10-24T02:30:27.815Z,100112.06
2022-10-24T02:32:56.263Z,100109.06
2022-10-24T02:35:27.395Z,100109.34
2022-10-24T02:37:56.244Z,100104.72
2022-10-24T02:40:24.111Z,100071.72
2022-10-24T02:42:53.589Z,100096.47
2022-10-24T02:45:21.436Z,100090.66
2022-10-24T02:47:49.293Z,100099.28
2022-10-24T02:50:18.252Z,100096.53
2022-10-24T02:52:47.733Z,100099.28
2022-10-24T02:55:15.804Z,100090.25
2022-10-24T02:57:43.677Z,100091.09
2022-10-24T03:00:12.761Z,100100.34
2022-10-24T03:02:40.592Z,100096.53
2022-10-24T03:05:09.054Z,100088.00
2022-10-24T03:07:36.918Z,100097.38
2022-10-24T03:10:09.557Z,100099.00
2022-10-24T03:12:37.433Z,100082.66
2022-10-24T03:15:07.891Z,100085.38
2022-10-24T03:17:35.791Z,100086.22
2022-10-24T03:20:04.148Z,100087.88
2022-10-24T03:22:32.044Z,100084.22
2022-10-24T03:25:02.971Z,100090.00
2022-10-24T03:27:33.881Z,100087.03
2022-10-24T03:30:02.191Z,100092.25
2022-10-24T03:32:30.140Z,100101.50
2022-10-24T03:34:58.001Z,100094.16
2022-10-24T03:37:25.846Z,100059.09
2022-10-24T03:39:53.765Z,100097.94
2022-10-24T03:42:21.806Z,100091.41
2022-10-24T03:44:51.082Z,100094.16
2022-10-24T03:47:19.626Z,100100.41
2022-10-24T03:49:47.850Z,100092.25
2022-10-24T03:52:15.711Z,100101.25
2022-10-24T03:54:43.601Z,100090.00
2022-10-24T03:57:11.513Z,100096.88
2022-10-24T03:59:39.803Z,100088.69
2022-10-24T04:02:09.112Z,100095.81
2022-10-24T04:04:37.132Z,100092.16
2022-10-24T04:07:05.788Z,100096.78
2022-10-24T04:09:34.230Z,100106.94
2022-10-24T04:12:02.081Z,100087.03
2022-10-24T04:14:29.900Z,100105.03
2022-10-24T04:16:58.683Z,100101.50
2022-10-24T04:19:28.413Z,100100.41
2022-10-24T04:21:56.280Z,100093.91
2022-10-24T04:24:24.245Z,100096.63
2022-10-24T04:26:52.071Z,100100.97
2022-10-24T04:29:20.302Z,100097.47
2022-10-24T04:31:48.205Z,100102.31
2022-10-24T04:34:16.034Z,100099.41
2022-10-24T04:36:45.296Z,100103.97
2022-10-24T04:39:13.209Z,100112.16
2022-10-24T04:41:41.100Z,100100.41
2022-10-24T04:44:08.928Z,100114.88
2022-10-24T04:46:36.791Z,100111.09
2022-10-24T04:49:05.086Z,100116.53
2022-10-24T04:51:33.000Z,100114.88
2022-10-24T04:54:02.313Z,100114.03
2022-10-24T04:56:30.241Z,100119.50
2022-10-24T04:58:58.678Z,100121.38
2022-10-24T05:01:26.598Z,100115.09
2022-10-24T05:03:54.608Z,100096.78
2022-10-24T05:06:22.543Z,100114.03
2022-10-24T05:08:50.923Z,100116.78
2022-10-24T05:11:20.232Z,100120.56
2022-10-24T05:13:48.056Z,100115.09
2022-10-24T05:16:16.113Z,100117.84
2022-10-24T05:18:44.287Z,100119.72
2022-10-24T05:21:12.218Z,100130.63
2022-10-24T05:23:40.125Z,100118.06
2022-10-24T05:26:09.434Z,100122.22
2022-10-24T05:28:39.170Z,100126.59
2022-10-24T05:31:07.062Z,100127.44
2022-10-24T05:33:34.970Z,100132.03
2022-10-24T05:36:04.482Z,100138.31
2022-10-24T05:38:32.406Z,100139.38
2022-10-24T05:41:00.335Z,100143.78
2022-10-24T05:43:28.204Z,100149.22
2022-10-24T05:45:57.499Z,100151.94
2022-10-24T05:48:25.690Z,100145.41
2022-10-24T05:50:57.287Z,100149.22
2022-10-24T05:53:25.394Z,100147.28
2022-10-24T05:55:53.282Z,100161.75
2022-10-24T05:58:22.440Z,100155.47
2022-10-24T06:00:53.747Z,100146.50
2022-10-24T06:03:23.521Z,100154.66
2022-10-24T06:05:51.359Z,100159.28
2022-10-24T06:08:19.196Z,100151.13
2022-10-24T06:10:47.772Z,100153.84
2022-10-24T06:13:15.691Z,100163.06
2022-10-24T06:15:43.592Z,100159.53
2022-10-24T06:18:11.725Z,100173.16
2022-10-24T06:20:41.009Z,100170.66
2022-10-24T06:23:08.882Z,100173.97
2022-10-24T06:25:36.862Z,100175.03
2022-10-24T06:28:05.100Z,100176.69
2022-10-24T06:30:32.988Z,100166.28
2022-10-24T06:33:01.428Z,100178.81
2022-10-24T06:35:29.368Z,100175.88
2022-10-24T06:37:58.716Z,100172.56
2022-10-24T06:40:26.713Z,100176.94
2022-10-24T06:42:54.593Z,100182.63
2022-10-24T06:45:23.920Z,100188.91
2022-10-24T06:47:54.201Z,100198.72
2022-10-24T06:50:22.671Z,100204.19
2022-10-24T06:52:50.541Z,100206.06
2022-10-24T06:55:19.818Z,100201.69
2022-10-24T06:57:48.070Z,100202.50
2022-10-24T07:00:16.422Z,100206.91
2022-10-24T07:02:44.680Z,100200.38
2022-10-24T07:05:14.393Z,100199.78
2022-10-24T07:07:42.818Z,100222.41
2022-10-24T07:10:11.778Z,100220.28
2022-10-24T07:12:40.990Z,100216.72
2022-10-24T07:15:12.272Z,100225.75
2022-10-24T07:17:40.950Z,100214.75
2022-10-24T07:20:09.470Z,100229.28
2022-10-24T07:22:37.392Z,100233.06
2022-10-24T07:25:06.067Z,100236.63
2022-10-24T07:27:33.992Z,100230.34
2022-10-24T07:30:05.657Z,100233.06
2022-10-24T07:32:35.596Z,100238.53
2022-10-24T07:35:03.580Z,100254.88
2022-10-24T07:37:31.432Z,100254.03
2022-10-24T07:39:59.331Z,100251.56
2022-10-24T07:42:27.269Z,100262.22
2022-10-24T07:44:55.160Z,100260.81
2022-10-24T07:47:24.420Z,100265.44
2022-10-24T07:49:52.675Z,100268.50
2022-10-24T07:52:20.498Z,100267.06
2022-10-24T07:54:48.370Z,100260.31
2022-10-24T07:57:16.263Z,100263.03
2022-10-24T07:59:44.379Z,100259.25
2022-10-24T08:02:12.709Z,100264.94
2022-10-24T08:04:42.266Z,100263.53
2022-10-24T08:07:13.578Z,100256.78
2022-10-24T08:09:42.664Z,100250.38
2022-10-24T08:12:10.571Z,100264.09
2022-10-24T08:14:38.504Z,100264.94
2022-10-24T08:17:06.400Z,100264.09
2022-10-24T08:19:34.761Z,100263.28
2022-10-24T08:22:04.028Z,100268.50
2022-10-24T08:24:31.929Z,100273.94
2022-10-24T08:27:00.458Z,100261.16
2022-10-24T08:29:28.338Z,100261.16
2022-10-24T08:31:58.607Z,100271.00
2022-10-24T08:34:26.577Z,100264.72
2022-10-24T08:36:54.443Z,100271.00
2022-10-24T08:39:23.729Z,100268.25
2022-10-24T08:41:54.510Z,100274.78
2022-10-24T08:44:27.623Z,100271.00
2022-10-24T08:46:56.613Z,100271.00
2022-10-24T08:49:28.681Z,100272.88
2022-10-24T08:51:58.622Z,100272.88
2022-10-24T08:54:30.448Z,100261.78
2022-10-24T08:56:59.920Z,100272.06
2022-10-24T08:59:29.720Z,100256.19
2022-10-24T09:02:00.705Z,100271.00
2022-10-24T09:04:35.424Z,100283.78
2022-10-24T09:07:03.788Z,100288.97
2022-10-24T09:09:35.292Z,100290.06
2022-10-24T09:12:04.314Z,100286.50
2022-10-24T09:14:33.379Z,100281.06
2022-10-24T09:17:03.635Z,100291.94
2022-10-24T09:19:32.141Z,100286.50
2022-10-24T09:22:00.541Z,100282.94
2022-10-24T09:24:34.162Z,100266.13
2022-10-24T09:27:04.403Z,100286.72
2022-10-24T09:29:33.146Z,100290.28
2022-10-24T09:32:01.103Z,100295.75
2022-10-24T09:34:29.006Z,100284.59
2022-10-24T09:36:56.892Z,100282.84
2022-10-24T09:39:27.830Z,100285.66
2022-10-24T09:41:57.147Z,100286.88
2022-10-24T09:44:35.667Z,100293.25
2022-10-24T09:47:04.670Z,100296.56
2022-10-24T09:49:35.684Z,100290.66
2022-10-24T09:52:06.049Z,100318.38
2022-10-24T09:54:34.116Z,100317.53
2022-10-24T09:57:08.265Z,100323.81
2022-10-24T09:59:38.952Z,100336.38
2022-10-24T10:02:25.210Z,100329.25
2022-10-24T10:05:22.301Z,100334.72
2022-10-24T10:07:50.549Z,100336.59
2022-10-24T10:10:32.818Z,100341.22
2022-10-24T10:13:04.533Z,100331.38
2022-10-24T10:15:35.179Z,100336.59
2022-10-24T10:18:06.106Z,100337.44
2022-10-24T10:20:36.343Z,100337.44
2022-10-24T10:23:25.898Z,100335.16
2022-10-24T10:26:20.718Z,100337.44
2022-10-24T10:29:01.571Z,100338.72
2022-10-24T10:31:40.687Z,100341.44
2022-10-24T10:34:21.353Z,100351.28
2022-10-24T10:36:57.493Z,100354.00
2022-10-24T10:39:45.147Z,100348.78
2022-10-24T10:42:16.084Z,100360.53
2022-10-24T10:44:53.865Z,100356.97
2022-10-24T10:47:27.649Z,100368.69
2022-10-24T10:49:57.318Z,100348.19
2022-10-24T10:52:26.678Z,100361.34
2022-10-24T10:55:13.289Z,100371.41
2022-10-24T10:57:45.034Z,100336.47
2022-10-24T11:00:16.485Z,100307.50
2022-10-24T11:03:17.334Z,100376.63
2022-10-24T11:05:51.298Z,100385.41
2022-10-24T11:08:30.718Z,100383.75
2022-10-24T11:11:00.378Z,100383.53
2022-10-24T11:13:33.714Z,100382.44
2022-10-24T11:16:06.479Z,100393.31
2022-10-24T11:18:35.703Z,100391.69
2022-10-24T11:22:06.314Z,100390.59
2022-10-24T11:24:38.020Z,100387.31
2022-10-24T11:27:10.987Z,100324.91
2022-10-24T11:29:41.499Z,100397.38
2022-10-24T11:32:16.164Z,100392.75
2022-10-24T11:34:46.320Z,100393.81
2022-10-24T11:37:16.113Z,100390.50
2022-10-24T11:39:47.017Z,100359.81
2022-10-24T11:42:17.026Z,100398.19
2022-10-24T11:44:47.691Z,100400.09
2022-10-24T11:47:47.042Z,100401.16
2022-10-24T11:50:21.804Z,100407.44
2022-10-24T11:52:53.949Z,100413.94
2022-10-24T11:55:22.823Z,100383.25
2022-10-24T11:57:52.386Z,100403.06
2022-10-24T12:00:22.292Z,100408.50
2022-10-24T12:03:16.685Z,100409.56
2022-10-24T12:06:00.608Z,100397.38
2022-10-24T12:08:43.576Z,100417.72
2022-10-24T12:11:38.814Z,100409.81
2022-10-24T12:14:28.001Z,100409.56
2022-10-24T12:17:16.940Z,100410.66
2022-10-24T12:19:46.408Z,100418.81
2022-10-24T12:22:17.621Z,100374.38
2022-10-24T12:24:45.608Z,100418.00
2022-10-24T12:27:23.070Z,100421.56
2022-10-24T12:30:01.966Z,100405.88
2022-10-24T12:32:39.105Z,100411.44
2022-10-24T12:35:58.889Z,100411.44
2022-10-24T12:39:00.147Z,100416.91
2022-10-24T12:41:41.357Z,100414.44
2022-10-24T12:44:38.973Z,100402.72
2022-10-24T12:47:27.616Z,100411.72
2022-10-24T12:49:55.544Z,100409.00
2022-10-24T12:53:02.943Z,100403.53
2022-10-24T12:55:35.027Z,100409.00
2022-10-24T12:58:05.656Z,100412.53
2022-10-24T13:00:33.970Z,100411.44
2022-10-24T13:03:07.248Z,100395.47
2022-10-24T13:05:47.580Z,100401.03
2022-10-24T13:08:22.832Z,100402.81
2022-10-24T13:10:58.173Z,100418.09
2022-10-24T13:13:38.985Z,100406.38
2022-10-24T13:16:09.173Z,100399.03
2022-10-24T13:18:44.245Z,100397.16
2022-10-24T13:21:23.160Z,100393.59
2022-10-24T13:23:52.498Z,100384.59
2022-10-24T13:26:37.946Z,100364.69
2022-10-24T13:29:06.575Z,100382.69
2022-10-24T13:31:45.525Z,100383.75
2022-10-24T13:34:26.860Z,100369.19
2022-10-24T13:37:00.843Z,100370.84
2022-10-24T13:39:34.291Z,100377.47
2022-10-24T13:42:07.491Z,100371.41
2022-10-24T13:44:41.230Z,100381.25
2022-10-24T13:47:15.020Z,100373.31
2022-10-24T13:49:45.901Z,100379.59
2022-10-24T13:52:17.214Z,100386.13
2022-10-24T13:54:47.277Z,100380.91
2022-10-24T13:57:25.836Z,100383.97
2022-10-24T13:59:58.102Z,100382.31
2022-10-24T14:02:29.914Z,100397.59
2022-10-24T14:05:00.213Z,100393.22
2022-10-24T14:07:30.287Z,100373.69
2022-10-24T14:10:01.700Z,100275.78
2022-10-24T14:12:31.940Z,100389.53
2022-10-24T14:15:02.591Z,100390.50
2022-10-24T14:17:31.011Z,100384.94
2022-10-24T14:19:59.671Z,100385.75
2022-10-24T14:22:29.425Z,100386.94
2022-10-24T14:24:57.474Z,100393.69
2022-10-24T14:27:26.758Z,100398.09
2022-10-24T14:29:59.788Z,100397.81
2022-10-24T14:32:28.188Z,100405.78
2022-10-24T14:34:56.652Z,100405.19
2022-10-24T14:37:28.886Z,100404.09
2022-10-24T14:39:56.757Z,100407.94
2022-10-24T14:42:26.316Z,100373.66
2022-10-24T14:44:58.334Z,100412.06
2022-10-24T14:47:28.863Z,100412.66
2022-10-24T14:49:56.979Z,100408.84
2022-10-24T14:52:27.184Z,100414.06
2022-10-24T14:54:58.870Z,100407.31
2022-10-24T14:57:28.122Z,100420.69
2022-10-24T14:59:56.551Z,100417.13
2022-10-24T15:02:26.874Z,100420.69
2022-10-24T15:04:54.969Z,100415.84
2022-10-24T15:07:29.332Z,100412.16
2022-10-24T15:09:58.359Z,100425.66
2022-10-24T15:12:33.526Z,100419.16
2022-10-24T15:15:22.757Z,100421.38
2022-10-24T15:17:51.277Z,100425.56
2022-10-24T15:20:19.851Z,100426.63
2022-10-24T15:22:48.639Z,100427.19
2022-10-24T15:27:52.151Z,100423.06
2022-10-24T15:30:21.279Z,100417.28
2022-10-24T15:32:50.005Z,100424.13
2022-10-24T15:35:18.237Z,100427.91
2022-10-24T15:37:54.147Z,100427.06
2022-10-24T15:40:23.102Z,100417.97
2022-10-24T15:42:52.762Z,100416.66
2022-10-24T15:45:20.894Z,100421.16
2022-10-24T15:47:48.761Z,100418.94
2022-10-24T15:50:17.039Z,100437.97
2022-10-24T15:52:51.652Z,100447.25
2022-10-24T15:55:20.443Z,100440.69
2022-10-24T15:57:48.384Z,100445.31
2022-10-24T16:00:19.810Z,100444.50
2022-10-24T16:02:48.983Z,100450.75
2022-10-24T16:05:17.775Z,100447.25
2022-10-24T16:07:45.899Z,100444.50
2022-10-24T16:10:14.708Z,100444.50
2022-10-24T16:12:42.711Z,100444.75
2022-10-24T16:15:19.713Z,100443.69
2022-10-24T16:17:47.769Z,100448.31
2022-10-24T16:20:16.272Z,100450.75
2022-10-24T16:22:44.260Z,100443.69
2022-10-24T16:25:15.402Z,100464.66
2022-10-24T16:27:43.568Z,100467.38
2022-10-24T16:30:12.965Z,100471.78
2022-10-24T16:32:42.572Z,100478.84
2022-10-24T16:35:10.629Z,100485.38
2022-10-24T16:37:38.809Z,100483.25
2022-10-24T16:40:07.545Z,100480.50
2022-10-24T16:42:35.405Z,100480.75
2022-10-24T16:45:03.499Z,100467.13
2022-10-24T16:47:31.979Z,100473.66
2022-10-24T16:50:01.258Z,100479.94
2022-10-24T16:52:29.494Z,100484.31
2022-10-24T16:54:57.415Z,100481.00
2022-10-24T16:59:58.616Z,100479.09
2022-10-24T17:02:26.761Z,100486.19
2022-10-24T17:04:54.751Z,100484.56
2022-10-24T17:07:24.020Z,100486.44
2022-10-24T17:09:52.002Z,100490.25
2022-10-24T17:12:20.177Z,100497.34
2022-10-24T17:14:48.092Z,100494.84
2022-10-24T17:17:15.925Z,100493.19
2022-10-24T17:19:44.333Z,100485.00
2022-10-24T17:22:13.539Z,100489.19
2022-10-24T17:24:43.315Z,100496.75
2022-10-24T17:27:11.933Z,100486.69
2022-10-24T17:29:39.979Z,100489.41
2022-10-24T17:32:08.671Z,100483.97
2022-10-24T17:34:37.092Z,100463.34
2022-10-24T17:37:07.347Z,100420.19
2022-10-24T17:39:41.687Z,100372.63
2022-10-24T17:42:14.625Z,100483.97
2022-10-24T17:44:43.992Z,100489.41
2022-10-24T17:47:12.287Z,100500.53
2022-10-24T17:49:40.152Z,100504.91
2022-10-24T17:52:08.285Z,100502.19
2022-10-24T17:54:36.221Z,100512.25
2022-10-24T17:57:05.091Z,100513.09
2022-10-24T17:59:34.417Z,100510.84
2022-10-24T18:02:03.025Z,100520.66
2022-10-24T18:06:59.977Z,100544.97
2022-10-24T18:09:29.805Z,100510.13
2022-10-24T18:11:59.326Z,100556.69
2022-10-24T18:14:28.405Z,100456.28
2022-10-24T18:16:58.154Z,100549.56
2022-10-24T18:19:26.067Z,100558.59
2022-10-24T18:21:54.251Z,100561.31
2022-10-24T18:24:22.181Z,100556.09
2022-10-24T18:26:50.130Z,100562.38
2022-10-24T18:29:18.027Z,100559.66
2022-10-24T18:31:46.066Z,100560.75
2022-10-24T18:34:15.799Z,100569.72
2022-10-24T18:36:43.785Z,100569.72
2022-10-24T18:39:12.449Z,100567.81
2022-10-24T18:41:46.569Z,100563.47
2022-10-24T18:44:25.854Z,100478.50
2022-10-24T18:46:54.741Z,100570.81
2022-10-24T18:49:24.521Z,100581.69
2022-10-24T18:51:58.540Z,100589.03
2022-10-24T18:54:26.642Z,100598.06
2022-10-24T18:56:54.538Z,100593.66
2022-10-24T18:59:22.612Z,100597.22
2022-10-24T19:01:56.210Z,100574.09
2022-10-24T19:04:26.222Z,100591.78
2022-10-24T19:06:54.927Z,100591.78
2022-10-24T19:09:24.062Z,100549.63
2022-10-24T19:11:52.647Z,100593.66
2022-10-24T19:14:20.787Z,100589.03
2022-10-24T19:16:50.108Z,100580.03
2022-10-24T19:19:21.357Z,100578.16
2022-10-24T19:21:51.125Z,100570.19
2022-10-24T19:24:19.018Z,100572.44
2022-10-24T19:26:46.960Z,100576.81
2022-10-24T19:29:15.032Z,100577.09
2022-10-24T19:31:42.850Z,100578.72
2022-10-24T19:34:11.145Z,100577.09
2022-10-24T19:36:39.256Z,100576.25
2022-10-24T19:39:09.410Z,100575.16
2022-10-24T19:41:37.556Z,100583.34
2022-10-24T19:44:05.967Z,100582.53
2022-10-24T19:46:33.964Z,100582.75
2022-10-24T19:49:01.867Z,100591.78
2022-10-24T19:51:29.709Z,100589.03
2022-10-24T19:53:58.292Z,100583.81
2022-10-24T19:56:28.630Z,100584.66
2022-10-24T19:58:56.698Z,100588.44
2022-10-24T20:01:25.708Z,100590.09
2022-10-24T20:03:55.001Z,100570.66
2022-10-24T20:06:22.902Z,100594.50
2022-10-24T20:08:50.923Z,100592.59
2022-10-24T20:11:20.559Z,100585.72
2022-10-24T20:13:50.399Z,100606.22
2022-10-24T20:16:18.270Z,100602.66
2022-10-24T20:18:46.296Z,100600.16
2022-10-24T20:21:16.184Z,100605.63
2022-10-24T20:23:44.375Z,100611.06
2022-10-24T20:26:13.410Z,100611.28
2022-10-24T20:28:43.103Z,100621.13
2022-10-24T20:31:21.535Z,100622.81
2022-10-24T20:33:49.621Z,100617.84
2022-10-24T20:36:17.737Z,100627.28
2022-10-24T20:38:45.955Z,100634.97
2022-10-24T20:41:13.858Z,100641.25
2022-10-24T20:43:42.083Z,100639.38
2022-10-24T20:46:10.028Z,100646.72
2022-10-24T20:48:39.367Z,100646.72
2022-10-24T20:51:08.593Z,100654.06
2022-10-24T20:53:36.769Z,100665.78
2022-10-24T20:56:06.286Z,100688.75
2022-10-24T20:58:34.269Z,100694.13
2022-10-24T21:01:06.959Z,100667.41
2022-10-24T21:03:35.676Z,100689.47
2022-10-24T21:06:05.647Z,100685.13
2022-10-24T21:08:33.531Z,100689.47
2022-10-24T21:11:06.224Z,100702.28
2022-10-24T21:13:34.524Z,100693.50
2022-10-24T21:16:02.466Z,100703.34
2022-10-24T21:18:30.329Z,100706.06
2022-10-24T21:20:58.265Z,100713.19
2022-10-24T21:23:27.822Z,100709.63
2022-10-24T21:26:02.395Z,100705.25
2022-10-24T21:28:30.358Z,100698.34
2022-10-24T21:30:58.238Z,100696.22
2022-10-24T21:33:27.456Z,100699.78
2022-10-24T21:35:55.295Z,100692.47
2022-10-24T21:38:23.167Z,100689.94
2022-10-24T21:40:52.435Z,100694.34
2022-10-24T21:43:20.338Z,100698.97
2022-10-24T21:45:48.317Z,100691.72
2022-10-24T21:48:17.408Z,100705.25
2022-10-24T21:50:45.974Z,100699.78
2022-10-24T21:53:14.124Z,100702.53
2022-10-24T21:55:41.990Z,100701.69
2022-10-24T21:58:11.274Z,100700.84
2022-10-24T22:00:40.377Z,100705.25
2022-10-24T22:03:08.714Z,100701.91
2022-10-24T22:05:36.572Z,100700.84
2022-10-24T22:08:04.443Z,100705.47
2022-10-24T22:10:32.280Z,100711.97
2022-10-24T22:13:00.385Z,100719.94
2022-10-24T22:15:29.642Z,100718.03
2022-10-24T22:17:57.563Z,100727.03
2022-10-24T22:20:25.825Z,100723.47
2022-10-24T22:22:53.983Z,100719.69
2022-10-24T22:25:21.848Z,100721.38
2022-10-24T22:27:49.726Z,100728.72
2022-10-24T22:30:17.778Z,100737.81
2022-10-24T22:32:47.861Z,100739.00
2022-10-24T22:35:17.511Z,100740.88
2022-10-24T22:37:45.912Z,100726.69
2022-10-24T22:40:18.399Z,100737.09
2022-10-24T22:42:47.268Z,100729.41
2022-10-24T22:45:16.684Z,100734.84
2022-10-24T22:47:53.548Z,100736.75
2022-10-24T22:50:34.237Z,100746.56
2022-10-24T22:53:02.650Z,100738.84
2022-10-24T22:55:34.168Z,100746.81
2022-10-24T22:58:02.518Z,100740.53
2022-10-24T23:00:31.000Z,100750.59
2022-10-24T23:03:03.991Z,100748.09
2022-10-24T23:05:34.993Z,100753.31
2022-10-24T23:08:05.487Z,100758.75
2022-10-24T23:10:33.403Z,100760.66
2022-10-24T23:13:02.022Z,100765.25
2022-10-24T23:15:30.551Z,100765.25
2022-10-24T23:18:00.287Z,100771.56
2022-10-24T23:20:31.389Z,100772.59
2022-10-24T23:23:09.488Z,100778.06
2022-10-24T23:25:45.244Z,100769.75
2022-10-24T23:28:15.795Z,100788.94
2022-10-24T23:30:44.100Z,100783.50
2022-10-24T23:33:21.592Z,100781.63
2022-10-24T23:35:49.601Z,100800.69
2022-10-24T23:38:18.049Z,100791.69
2022-10-24T23:40:46.500Z,100794.41
2022-10-24T23:43:16.924Z,100796.28
2022-10-24T23:45:47.934Z,100795.22
2022-10-24T23:48:22.339Z,100783.53
2022-10-24T23:50:53.106Z,100766.00
2022-10-24T23:53:32.832Z,100799.84
2022-10-24T23:56:01.314Z,100795.47
2022-10-24T23:58:29.254Z,100795.47
